sensor_id;sensor_type;location;lat;lon;timestamp;pressure;altitude;pressure_sealevel;temperature;humidity
13869;BME280;7004;48.206;16.402;2023-01-24T00:00:37;101229.03;;;4.15;95.25
13869;BME280;7004;48.206;16.402;2023-01-24T00:03:04;101229.75;;;4.27;95.18
13869;BME280;7004;48.206;16.402;2023-01-24T00:05:33;101231.47;;;4.31;93.04
13869;BME280;7004;48.206;16.402;2023-01-24T00:07:59;101228.84;;;4.29;94.35
13869;BME280;7004;48.206;16.402;2023-01-24T00:10:25;101232.22;;;4.37;94.57
13869;BME280;7004;48.206;16.402;2023-01-24T00:12:52;101227.28;;;4.16;94.87
13869;BME280;7004;48.206;16.402;2023-01-24T00:15:18;101221.97;;;4.22;95.26
13869;BME280;7004;48.206;16.402;2023-01-24T00:17:44;101221.00;;;4.28;93.76
13869;BME280;7004;48.206;16.402;2023-01-24T00:20:10;101227.75;;;3.76;96.38
13869;BME280;7004;48.206;16.402;2023-01-24T00:22:37;101223.75;;;4.19;93.74
13869;BME280;7004;48.206;16.402;2023-01-24T00:25:05;101221.28;;;4.06;96.26
13869;BME280;7004;48.206;16.402;2023-01-24T00:27:31;101221.44;;;3.94;95.25
13869;BME280;7004;48.206;16.402;2023-01-24T00:29:57;101221.44;;;3.97;95.40
13869;BME280;7004;48.206;16.402;2023-01-24T00:32:24;101218.78;;;3.99;95.51
13869;BME280;7004;48.206;16.402;2023-01-24T00:34:50;101222.19;;;4.05;95.92
13869;BME280;7004;48.206;16.402;2023-01-24T00:37:16;101226.47;;;4.11;95.50
13869;BME280;7004;48.206;16.402;2023-01-24T00:39:42;101222.25;;;3.99;95.41
13869;BME280;7004;48.206;16.402;2023-01-24T00:42:08;101231.63;;;4.17;94.27
13869;BME280;7004;48.206;16.402;2023-01-24T00:44:35;101228.03;;;4.26;94.58
13869;BME280;7004;48.206;16.402;2023-01-24T00:47:01;101220.56;;;3.95;94.74
13869;BME280;7004;48.206;16.402;2023-01-24T00:49:27;101221.44;;;3.94;94.91
13869;BME280;7004;48.206;16.402;2023-01-24T00:51:53;101224.84;;;4.02;94.60
13869;BME280;7004;48.206;16.402;2023-01-24T00:54:19;101224.06;;;3.96;94.49
13869;BME280;7004;48.206;16.402;2023-01-24T00:56:46;101224.00;;;4.00;94.72
13869;BME280;7004;48.206;16.402;2023-01-24T00:59:12;101216.81;;;4.16;94.99
13869;BME280;7004;48.206;16.402;2023-01-24T01:01:39;101225.91;;;4.52;93.58
13869;BME280;7004;48.206;16.402;2023-01-24T01:04:05;101221.34;;;4.03;94.46
13869;BME280;7004;48.206;16.402;2023-01-24T01:06:31;101223.94;;;4.05;94.74
13869;BME280;7004;48.206;16.402;2023-01-24T01:08:57;101226.97;;;4.39;93.72
13869;BME280;7004;48.206;16.402;2023-01-24T01:11:24;101230.50;;;4.36;91.99
13869;BME280;7004;48.206;16.402;2023-01-24T01:13:50;101229.03;;;4.14;93.31
13869;BME280;7004;48.206;16.402;2023-01-24T01:16:19;101229.22;;;4.64;92.74
13869;BME280;7004;48.206;16.402;2023-01-24T01:18:47;101236.28;;;3.95;94.65
13869;BME280;7004;48.206;16.402;2023-01-24T01:21:16;101240.97;;;4.35;93.48
13869;BME280;7004;48.206;16.402;2023-01-24T01:23:44;101234.19;;;4.22;93.82
13869;BME280;7004;48.206;16.402;2023-01-24T01:26:19;101236.00;;;4.18;95.35
13869;BME280;7004;48.206;16.402;2023-01-24T01:28:46;101238.91;;;4.58;91.71
13869;BME280;7004;48.206;16.402;2023-01-24T01:31:12;101242.63;;;4.42;92.24
13869;BME280;7004;48.206;16.402;2023-01-24T01:33:38;101245.00;;;4.59;91.74
13869;BME280;7004;48.206;16.402;2023-01-24T01:36:05;101243.56;;;4.38;92.38
13869;BME280;7004;48.206;16.402;2023-01-24T01:38:31;101244.75;;;4.12;93.80
13869;BME280;7004;48.206;16.402;2023-01-24T01:40:58;101251.75;;;4.12;93.60
13869;BME280;7004;48.206;16.402;2023-01-24T01:43:28;101253.31;;;4.28;93.60
13869;BME280;7004;48.206;16.402;2023-01-24T01:46:18;101254.16;;;4.27;93.11
13869;BME280;7004;48.206;16.402;2023-01-24T01:48:52;101260.00;;;4.49;92.63
13869;BME280;7004;48.206;16.402;2023-01-24T01:51:44;101261.25;;;4.21;92.81
13869;BME280;7004;48.206;16.402;2023-01-24T01:54:19;101262.47;;;4.58;92.20
13869;BME280;7004;48.206;16.402;2023-01-24T01:57:08;101261.06;;;4.33;91.62
13869;BME280;7004;48.206;16.402;2023-01-24T01:59:52;101258.28;;;4.47;92.23
13869;BME280;7004;48.206;16.402;2023-01-24T02:02:21;101263.63;;;4.37;92.09
13869;BME280;7004;48.206;16.402;2023-01-24T02:04:57;101270.59;;;4.42;90.65
13869;BME280;7004;48.206;16.402;2023-01-24T02:07:56;101273.09;;;4.48;91.41
13869;BME280;7004;48.206;16.402;2023-01-24T02:10:25;101265.25;;;4.49;91.21
13869;BME280;7004;48.206;16.402;2023-01-24T02:13:12;101268.56;;;4.62;90.96
13869;BME280;7004;48.206;16.402;2023-01-24T02:15:38;101275.81;;;4.42;92.31
13869;BME280;7004;48.206;16.402;2023-01-24T02:18:23;101269.72;;;4.38;91.32
13869;BME280;7004;48.206;16.402;2023-01-24T02:20:50;101277.09;;;4.08;93.10
13869;BME280;7004;48.206;16.402;2023-01-24T02:23:23;101278.19;;;3.90;94.27
13869;BME280;7004;48.206;16.402;2023-01-24T02:26:13;101271.88;;;4.10;93.83
13869;BME280;7004;48.206;16.402;2023-01-24T02:31:26;101272.13;;;3.84;94.33
13869;BME280;7004;48.206;16.402;2023-01-24T02:33:52;101270.38;;;3.87;95.24
13869;BME280;7004;48.206;16.402;2023-01-24T02:36:35;101269.06;;;4.24;92.77
13869;BME280;7004;48.206;16.402;2023-01-24T02:39:18;101270.06;;;4.13;93.19
13869;BME280;7004;48.206;16.402;2023-01-24T02:41:53;101263.03;;;4.19;92.77
13869;BME280;7004;48.206;16.402;2023-01-24T02:44:29;101267.84;;;4.49;91.26
13869;BME280;7004;48.206;16.402;2023-01-24T02:46:58;101268.06;;;4.32;91.98
13869;BME280;7004;48.206;16.402;2023-01-24T02:49:24;101266.72;;;4.01;92.61
13869;BME280;7004;48.206;16.402;2023-01-24T02:51:51;101265.09;;;3.92;93.42
13869;BME280;7004;48.206;16.402;2023-01-24T02:54:37;101260.69;;;3.94;93.70
13869;BME280;7004;48.206;16.402;2023-01-24T02:57:04;101268.72;;;3.77;95.32
13869;BME280;7004;48.206;16.402;2023-01-24T02:59:49;101270.06;;;4.12;92.62
13869;BME280;7004;48.206;16.402;2023-01-24T03:02:17;101267.19;;;4.33;91.46
13869;BME280;7004;48.206;16.402;2023-01-24T03:04:43;101269.72;;;4.38;92.52
13869;BME280;7004;48.206;16.402;2023-01-24T03:07:10;101270.28;;;3.95;93.57
13869;BME280;7004;48.206;16.402;2023-01-24T03:09:36;101269.16;;;4.14;92.82
13869;BME280;7004;48.206;16.402;2023-01-24T03:12:07;101272.72;;;4.10;94.28
13869;BME280;7004;48.206;16.402;2023-01-24T03:14:52;101271.44;;;4.42;92.45
13869;BME280;7004;48.206;16.402;2023-01-24T03:17:37;101277.09;;;4.08;92.61
13869;BME280;7004;48.206;16.402;2023-01-24T03:20:22;101278.53;;;4.32;90.67
13869;BME280;7004;48.206;16.402;2023-01-24T03:23:07;101277.88;;;4.18;91.42
13869;BME280;7004;48.206;16.402;2023-01-24T03:25:57;101286.88;;;3.92;92.64
13869;BME280;7004;48.206;16.402;2023-01-24T03:28:42;101285.69;;;4.20;92.05
13869;BME280;7004;48.206;16.402;2023-01-24T03:31:28;101287.56;;;4.07;92.32
13869;BME280;7004;48.206;16.402;2023-01-24T03:34:13;101286.84;;;3.97;93.80
13869;BME280;7004;48.206;16.402;2023-01-24T03:36:59;101281.88;;;4.45;91.42
13869;BME280;7004;48.206;16.402;2023-01-24T03:39:26;101288.28;;;4.21;92.13
13869;BME280;7004;48.206;16.402;2023-01-24T03:42:11;101280.75;;;3.93;92.34
13869;BME280;7004;48.206;16.402;2023-01-24T03:44:37;101285.84;;;4.04;92.85
13869;BME280;7004;48.206;16.402;2023-01-24T03:47:03;101281.41;;;4.12;93.59
13869;BME280;7004;48.206;16.402;2023-01-24T03:49:30;101285.50;;;4.35;92.66
13869;BME280;7004;48.206;16.402;2023-01-24T03:52:15;101289.75;;;4.44;91.86
13869;BME280;7004;48.206;16.402;2023-01-24T03:54:51;101292.38;;;4.41;91.20
13869;BME280;7004;48.206;16.402;2023-01-24T03:57:18;101289.56;;;4.56;90.22
13869;BME280;7004;48.206;16.402;2023-01-24T03:59:44;101288.00;;;4.44;90.47
13869;BME280;7004;48.206;16.402;2023-01-24T04:02:10;101288.00;;;4.44;91.23
13869;BME280;7004;48.206;16.402;2023-01-24T04:04:36;101291.56;;;4.37;90.12
13869;BME280;7004;48.206;16.402;2023-01-24T04:07:21;101292.53;;;4.31;91.30
13869;BME280;7004;48.206;16.402;2023-01-24T04:09:47;101293.53;;;4.21;92.19
13869;BME280;7004;48.206;16.402;2023-01-24T04:12:13;101292.75;;;4.11;92.01
13869;BME280;7004;48.206;16.402;2023-01-24T04:14:39;101290.28;;;4.02;92.10
13869;BME280;7004;48.206;16.402;2023-01-24T04:17:05;101290.94;;;4.18;91.98
13869;BME280;7004;48.206;16.402;2023-01-24T04:19:32;101301.59;;;4.01;91.88
13869;BME280;7004;48.206;16.402;2023-01-24T04:21:58;101295.25;;;4.24;92.22
13869;BME280;7004;48.206;16.402;2023-01-24T04:24:24;101296.50;;;3.89;92.84
13869;BME280;7004;48.206;16.402;2023-01-24T04:26:50;101297.22;;;4.05;92.59
13869;BME280;7004;48.206;16.402;2023-01-24T04:29:16;101300.81;;;3.94;92.84
13869;BME280;7004;48.206;16.402;2023-01-24T04:31:42;101293.25;;;4.43;91.76
13869;BME280;7004;48.206;16.402;2023-01-24T04:34:09;101290.47;;;3.82;93.21
13869;BME280;7004;48.206;16.402;2023-01-24T04:36:35;101301.56;;;4.06;93.15
13869;BME280;7004;48.206;16.402;2023-01-24T04:39:01;101300.66;;;4.07;93.35
13869;BME280;7004;48.206;16.402;2023-01-24T04:41:27;101304.91;;;4.17;92.29
13869;BME280;7004;48.206;16.402;2023-01-24T04:43:53;101305.66;;;4.27;92.51
13869;BME280;7004;48.206;16.402;2023-01-24T04:46:19;101302.31;;;4.14;92.16
13869;BME280;7004;48.206;16.402;2023-01-24T04:48:45;101304.34;;;3.90;93.55
13869;BME280;7004;48.206;16.402;2023-01-24T04:51:11;101306.06;;;3.94;92.77
13869;BME280;7004;48.206;16.402;2023-01-24T04:53:39;101308.41;;;4.14;92.65
13869;BME280;7004;48.206;16.402;2023-01-24T04:56:05;101305.44;;;4.47;91.08
13869;BME280;7004;48.206;16.402;2023-01-24T04:58:33;101309.28;;;4.15;92.76
13869;BME280;7004;48.206;16.402;2023-01-24T05:01:00;101310.25;;;4.06;91.98
13869;BME280;7004;48.206;16.402;2023-01-24T05:03:27;101315.75;;;3.85;93.32
13869;BME280;7004;48.206;16.402;2023-01-24T05:05:54;101313.25;;;3.72;94.42
13869;BME280;7004;48.206;16.402;2023-01-24T05:08:21;101311.81;;;4.26;91.91
13869;BME280;7004;48.206;16.402;2023-01-24T05:10:47;101319.44;;;4.43;91.64
13869;BME280;7004;48.206;16.402;2023-01-24T05:13:14;101321.41;;;4.22;91.88
13869;BME280;7004;48.206;16.402;2023-01-24T05:15:51;101317.28;;;4.03;92.73
13869;BME280;7004;48.206;16.402;2023-01-24T05:18:17;101323.47;;;3.97;93.39
13869;BME280;7004;48.206;16.402;2023-01-24T05:20:43;101323.34;;;4.06;93.16
13869;BME280;7004;48.206;16.402;2023-01-24T05:23:10;101321.03;;;3.77;93.69
13869;BME280;7004;48.206;16.402;2023-01-24T05:25:36;101320.72;;;4.06;93.00
13869;BME280;7004;48.206;16.402;2023-01-24T05:28:03;101326.25;;;3.82;93.98
13869;BME280;7004;48.206;16.402;2023-01-24T05:30:29;101318.16;;;4.03;93.59
13869;BME280;7004;48.206;16.402;2023-01-24T05:32:58;101318.88;;;4.14;92.15
13869;BME280;7004;48.206;16.402;2023-01-24T05:35:24;101317.34;;;4.00;92.93
13869;BME280;7004;48.206;16.402;2023-01-24T05:37:51;101320.78;;;4.03;92.23
13869;BME280;7004;48.206;16.402;2023-01-24T05:40:17;101331.41;;;3.88;93.85
13869;BME280;7004;48.206;16.402;2023-01-24T05:42:43;101332.16;;;3.99;92.67
13869;BME280;7004;48.206;16.402;2023-01-24T05:45:10;101336.09;;;4.35;92.33
13869;BME280;7004;48.206;16.402;2023-01-24T05:47:36;101336.00;;;4.43;91.58
13869;BME280;7004;48.206;16.402;2023-01-24T05:50:03;101341.22;;;4.45;90.06
13869;BME280;7004;48.206;16.402;2023-01-24T05:52:29;101337.94;;;4.29;91.37
13869;BME280;7004;48.206;16.402;2023-01-24T05:54:55;101345.59;;;4.44;91.32
13869;BME280;7004;48.206;16.402;2023-01-24T05:57:22;101346.09;;;4.03;92.83
13869;BME280;7004;48.206;16.402;2023-01-24T05:59:48;101351.19;;;4.13;92.55
13869;BME280;7004;48.206;16.402;2023-01-24T06:02:14;101352.09;;;4.11;92.51
13869;BME280;7004;48.206;16.402;2023-01-24T06:04:40;101348.00;;;3.84;94.02
13869;BME280;7004;48.206;16.402;2023-01-24T06:07:06;101349.34;;;4.23;91.24
13869;BME280;7004;48.206;16.402;2023-01-24T06:09:32;101357.72;;;4.51;91.27
13869;BME280;7004;48.206;16.402;2023-01-24T06:11:58;101355.47;;;4.21;91.74
13869;BME280;7004;48.206;16.402;2023-01-24T06:14:24;101359.41;;;3.77;92.96
13869;BME280;7004;48.206;16.402;2023-01-24T06:16:50;101369.47;;;4.18;91.68
13869;BME280;7004;48.206;16.402;2023-01-24T06:19:17;101373.94;;;4.07;92.69
13869;BME280;7004;48.206;16.402;2023-01-24T06:21:48;101373.47;;;4.48;90.97
13869;BME280;7004;48.206;16.402;2023-01-24T06:24:24;101392.06;;;4.25;91.78
13869;BME280;7004;48.206;16.402;2023-01-24T06:26:51;101384.94;;;4.38;91.17
13869;BME280;7004;48.206;16.402;2023-01-24T06:29:20;101390.41;;;4.18;90.81
13869;BME280;7004;48.206;16.402;2023-01-24T06:37:51;101393.72;;;4.34;91.26
13869;BME280;7004;48.206;16.402;2023-01-24T06:40:22;101401.03;;;4.01;92.17
13869;BME280;7004;48.206;16.402;2023-01-24T06:42:50;101405.38;;;4.05;92.63
13869;BME280;7004;48.206;16.402;2023-01-24T06:45:18;101411.19;;;4.33;92.44
13869;BME280;7004;48.206;16.402;2023-01-24T06:47:44;101409.56;;;4.20;92.37
13869;BME280;7004;48.206;16.402;2023-01-24T06:50:19;101408.94;;;3.95;93.46
13869;BME280;7004;48.206;16.402;2023-01-24T06:52:47;101415.13;;;3.86;93.16
13869;BME280;7004;48.206;16.402;2023-01-24T06:55:14;101420.41;;;3.80;94.53
13869;BME280;7004;48.206;16.402;2023-01-24T06:57:40;101431.88;;;3.62;95.42
13869;BME280;7004;48.206;16.402;2023-01-24T07:00:08;101428.13;;;3.97;94.07
13869;BME280;7004;48.206;16.402;2023-01-24T07:02:34;101427.47;;;3.74;95.08
13869;BME280;7004;48.206;16.402;2023-01-24T07:05:00;101429.91;;;3.92;92.81
13869;BME280;7004;48.206;16.402;2023-01-24T07:07:26;101432.72;;;3.69;95.03
13869;BME280;7004;48.206;16.402;2023-01-24T07:09:52;101432.22;;;4.26;92.77
13869;BME280;7004;48.206;16.402;2023-01-24T07:12:18;101431.44;;;4.14;93.29
13869;BME280;7004;48.206;16.402;2023-01-24T07:14:44;101436.22;;;3.65;95.24
13869;BME280;7004;48.206;16.402;2023-01-24T07:17:11;101434.31;;;3.87;95.47
13869;BME280;7004;48.206;16.402;2023-01-24T07:19:38;101430.69;;;4.05;94.32
13869;BME280;7004;48.206;16.402;2023-01-24T07:22:04;101437.41;;;4.27;92.21
13869;BME280;7004;48.206;16.402;2023-01-24T07:24:31;101441.19;;;4.00;93.57
13869;BME280;7004;48.206;16.402;2023-01-24T07:26:58;101449.03;;;4.00;93.09
13869;BME280;7004;48.206;16.402;2023-01-24T07:29:24;101450.09;;;3.79;93.92
13869;BME280;7004;48.206;16.402;2023-01-24T07:31:52;101448.19;;;3.95;93.84
13869;BME280;7004;48.206;16.402;2023-01-24T07:34:19;101454.41;;;3.82;95.09
13869;BME280;7004;48.206;16.402;2023-01-24T07:36:45;101452.63;;;3.85;95.42
13869;BME280;7004;48.206;16.402;2023-01-24T07:39:13;101452.38;;;4.16;94.31
13869;BME280;7004;48.206;16.402;2023-01-24T07:41:39;101459.59;;;3.86;95.18
13869;BME280;7004;48.206;16.402;2023-01-24T07:44:08;101454.44;;;3.77;96.07
13869;BME280;7004;48.206;16.402;2023-01-24T07:46:35;101461.16;;;4.09;93.82
13869;BME280;7004;48.206;16.402;2023-01-24T07:49:02;101464.97;;;3.68;96.00
13869;BME280;7004;48.206;16.402;2023-01-24T07:51:28;101466.25;;;4.26;93.47
13869;BME280;7004;48.206;16.402;2023-01-24T07:53:55;101460.00;;;4.39;92.93
13869;BME280;7004;48.206;16.402;2023-01-24T07:56:21;101464.50;;;4.26;92.82
13869;BME280;7004;48.206;16.402;2023-01-24T07:58:47;101467.81;;;4.41;91.70
13869;BME280;7004;48.206;16.402;2023-01-24T08:01:18;101470.66;;;4.21;93.23
13869;BME280;7004;48.206;16.402;2023-01-24T08:03:45;101461.03;;;4.23;93.65
13869;BME280;7004;48.206;16.402;2023-01-24T08:06:11;101470.06;;;3.89;94.95
13869;BME280;7004;48.206;16.402;2023-01-24T08:08:37;101474.38;;;3.95;94.62
13869;BME280;7004;48.206;16.402;2023-01-24T08:11:06;101471.56;;;4.18;94.33
13869;BME280;7004;48.206;16.402;2023-01-24T08:13:32;101472.34;;;4.25;92.40
13869;BME280;7004;48.206;16.402;2023-01-24T08:15:59;101474.91;;;4.32;93.38
13869;BME280;7004;48.206;16.402;2023-01-24T08:18:26;101482.97;;;4.06;93.52
13869;BME280;7004;48.206;16.402;2023-01-24T08:20:56;101482.03;;;4.15;93.97
13869;BME280;7004;48.206;16.402;2023-01-24T08:23:22;101491.81;;;3.94;95.06
13869;BME280;7004;48.206;16.402;2023-01-24T08:25:49;101480.88;;;4.47;92.41
13869;BME280;7004;48.206;16.402;2023-01-24T08:28:15;101489.88;;;4.15;93.57
13869;BME280;7004;48.206;16.402;2023-01-24T08:30:41;101501.47;;;3.85;93.97
13869;BME280;7004;48.206;16.402;2023-01-24T08:33:09;101501.41;;;3.97;94.18
13869;BME280;7004;48.206;16.402;2023-01-24T08:35:39;101506.59;;;4.00;94.64
13869;BME280;7004;48.206;16.402;2023-01-24T08:38:05;101503.03;;;4.10;94.59
13869;BME280;7004;48.206;16.402;2023-01-24T08:40:31;101496.97;;;4.04;92.70
13869;BME280;7004;48.206;16.402;2023-01-24T08:42:59;101504.84;;;3.99;94.71
13869;BME280;7004;48.206;16.402;2023-01-24T08:45:27;101508.28;;;4.07;94.27
13869;BME280;7004;48.206;16.402;2023-01-24T08:47:53;101501.88;;;4.41;93.03
13869;BME280;7004;48.206;16.402;2023-01-24T08:50:20;101505.69;;;4.06;93.07
13869;BME280;7004;48.206;16.402;2023-01-24T08:52:48;101508.03;;;4.35;92.95
13869;BME280;7004;48.206;16.402;2023-01-24T08:55:14;101517.19;;;3.80;94.80
13869;BME280;7004;48.206;16.402;2023-01-24T08:57:41;101504.09;;;3.85;95.00
13869;BME280;7004;48.206;16.402;2023-01-24T09:00:07;101511.91;;;3.86;95.57
13869;BME280;7004;48.206;16.402;2023-01-24T09:02:34;101515.41;;;3.88;94.61
13869;BME280;7004;48.206;16.402;2023-01-24T09:05:07;101510.13;;;3.94;95.24
13869;BME280;7004;48.206;16.402;2023-01-24T09:07:34;101518.44;;;4.43;93.52
13869;BME280;7004;48.206;16.402;2023-01-24T09:10:07;101520.44;;;4.11;93.80
13869;BME280;7004;48.206;16.402;2023-01-24T09:12:33;101527.91;;;4.56;91.06
13869;BME280;7004;48.206;16.402;2023-01-24T09:15:00;101529.84;;;4.38;92.51
13869;BME280;7004;48.206;16.402;2023-01-24T09:17:26;101533.28;;;4.41;91.76
13869;BME280;7004;48.206;16.402;2023-01-24T09:19:52;101530.81;;;4.27;92.40
13869;BME280;7004;48.206;16.402;2023-01-24T09:22:18;101536.00;;;4.31;92.90
13869;BME280;7004;48.206;16.402;2023-01-24T09:24:44;101537.19;;;3.89;93.57
13869;BME280;7004;48.206;16.402;2023-01-24T09:27:11;101543.22;;;4.00;94.43
13869;BME280;7004;48.206;16.402;2023-01-24T09:29:37;101536.66;;;4.55;92.30
13869;BME280;7004;48.206;16.402;2023-01-24T09:32:03;101542.41;;;4.89;90.52
13869;BME280;7004;48.206;16.402;2023-01-24T09:34:29;101548.28;;;4.20;93.81
13869;BME280;7004;48.206;16.402;2023-01-24T09:36:55;101539.75;;;4.94;90.00
13869;BME280;7004;48.206;16.402;2023-01-24T09:39:21;101541.19;;;4.37;91.11
13869;BME280;7004;48.206;16.402;2023-01-24T09:42:22;101542.78;;;4.52;91.48
13869;BME280;7004;48.206;16.402;2023-01-24T09:47:45;101536.88;;;4.32;92.44
13869;BME280;7004;48.206;16.402;2023-01-24T09:50:23;101535.22;;;4.22;92.67
13869;BME280;7004;48.206;16.402;2023-01-24T09:52:56;101531.53;;;4.44;92.19
13869;BME280;7004;48.206;16.402;2023-01-24T09:55:34;101537.00;;;4.16;92.49
13869;BME280;7004;48.206;16.402;2023-01-24T10:00:45;101537.88;;;4.14;92.56
13869;BME280;7004;48.206;16.402;2023-01-24T10:03:22;101533.38;;;4.31;91.67
13869;BME280;7004;48.206;16.402;2023-01-24T10:05:56;101529.88;;;4.34;92.39
13869;BME280;7004;48.206;16.402;2023-01-24T10:08:58;101531.56;;;4.40;92.99
13869;BME280;7004;48.206;16.402;2023-01-24T10:23:05;101530.66;;;4.42;91.21
13869;BME280;7004;48.206;16.402;2023-01-24T10:25:50;101530.97;;;4.10;92.40
13869;BME280;7004;48.206;16.402;2023-01-24T10:28:40;101515.84;;;4.40;91.80
13869;BME280;7004;48.206;16.402;2023-01-24T10:31:58;101516.94;;;4.15;92.79
13869;BME280;7004;48.206;16.402;2023-01-24T10:34:19;101518.66;;;4.16;93.08
13869;BME280;7004;48.206;16.402;2023-01-24T10:39:37;101511.28;;;4.60;91.16
13869;BME280;7004;48.206;16.402;2023-01-24T10:42:30;101516.75;;;4.38;90.77
13869;BME280;7004;48.206;16.402;2023-01-24T10:50:41;101506.78;;;4.71;90.64
13869;BME280;7004;48.206;16.402;2023-01-24T10:53:25;101501.72;;;4.56;89.92
13869;BME280;7004;48.206;16.402;2023-01-24T10:56:02;101508.78;;;4.49;89.83
13869;BME280;7004;48.206;16.402;2023-01-24T10:58:43;101502.06;;;5.02;88.69
13869;BME280;7004;48.206;16.402;2023-01-24T11:01:22;101506.75;;;4.74;89.21
13869;BME280;7004;48.206;16.402;2023-01-24T11:03:51;101500.06;;;4.47;89.63
13869;BME280;7004;48.206;16.402;2023-01-24T11:06:39;101495.53;;;4.65;88.53
13869;BME280;7004;48.206;16.402;2023-01-24T11:09:17;101499.66;;;4.84;88.20
13869;BME280;7004;48.206;16.402;2023-01-24T11:11:57;101495.66;;;4.51;89.34
13869;BME280;7004;48.206;16.402;2023-01-24T11:14:31;101493.81;;;4.60;90.04
13869;BME280;7004;48.206;16.402;2023-01-24T11:16:59;101487.09;;;5.14;85.96
13869;BME280;7004;48.206;16.402;2023-01-24T11:19:35;101492.59;;;4.92;87.99
13869;BME280;7004;48.206;16.402;2023-01-24T11:22:26;101476.91;;;4.91;87.12
13869;BME280;7004;48.206;16.402;2023-01-24T11:25:02;101484.13;;;4.70;87.83
13869;BME280;7004;48.206;16.402;2023-01-24T11:27:29;101481.44;;;5.43;90.36
13869;BME280;7004;48.206;16.402;2023-01-24T11:30:19;101474.38;;;4.81;87.97
13869;BME280;7004;48.206;16.402;2023-01-24T11:39:21;101456.06;;;5.45;84.31
13869;BME280;7004;48.206;16.402;2023-01-24T11:47:33;101457.78;;;6.53;80.86
13869;BME280;7004;48.206;16.402;2023-01-24T11:56:10;101459.56;;;6.03;78.21
13869;BME280;7004;48.206;16.402;2023-01-24T12:17:12;101457.22;;;4.51;85.48
13869;BME280;7004;48.206;16.402;2023-01-24T12:22:25;101456.03;;;4.81;84.82
13869;BME280;7004;48.206;16.402;2023-01-24T12:25:03;101462.97;;;4.84;83.47
13869;BME280;7004;48.206;16.402;2023-01-24T12:27:35;101457.78;;;4.81;84.53
13869;BME280;7004;48.206;16.402;2023-01-24T12:30:39;101453.13;;;5.03;82.60
13869;BME280;7004;48.206;16.402;2023-01-24T12:33:30;101451.59;;;4.87;83.79
13869;BME280;7004;48.206;16.402;2023-01-24T12:36:15;101456.25;;;4.63;85.71
13869;BME280;7004;48.206;16.402;2023-01-24T12:38:48;101453.09;;;4.33;85.54
13869;BME280;7004;48.206;16.402;2023-01-24T12:41:35;101449.28;;;4.59;84.73
13869;BME280;7004;48.206;16.402;2023-01-24T12:44:28;101441.84;;;4.98;83.01
13869;BME280;7004;48.206;16.402;2023-01-24T12:47:28;101440.66;;;4.52;84.71
13869;BME280;7004;48.206;16.402;2023-01-24T12:50:13;101442.47;;;4.47;85.55
13869;BME280;7004;48.206;16.402;2023-01-24T12:55:37;101439.75;;;4.53;84.96
13869;BME280;7004;48.206;16.402;2023-01-24T12:58:27;101430.44;;;5.03;83.58
13869;BME280;7004;48.206;16.402;2023-01-24T13:11:32;101433.06;;;5.02;82.97
13869;BME280;7004;48.206;16.402;2023-01-24T13:34:37;101441.38;;;4.65;84.17
13869;BME280;7004;48.206;16.402;2023-01-24T13:37:25;101431.75;;;5.34;81.60
13869;BME280;7004;48.206;16.402;2023-01-24T13:42:38;101435.50;;;4.43;84.13
13869;BME280;7004;48.206;16.402;2023-01-24T13:47:53;101439.97;;;5.08;83.23
13869;BME280;7004;48.206;16.402;2023-01-24T13:50:21;101439.06;;;5.12;81.34
13869;BME280;7004;48.206;16.402;2023-01-24T13:52:53;101443.53;;;5.03;81.47
13869;BME280;7004;48.206;16.402;2023-01-24T14:03:33;101448.16;;;4.81;81.94
13869;BME280;7004;48.206;16.402;2023-01-24T14:24:56;101454.06;;;4.99;83.08
13869;BME280;7004;48.206;16.402;2023-01-24T14:27:39;101455.63;;;5.14;81.82
13869;BME280;7004;48.206;16.402;2023-01-24T14:30:30;101460.91;;;5.11;81.71
13869;BME280;7004;48.206;16.402;2023-01-24T14:36:28;101469.03;;;4.91;82.33
13869;BME280;7004;48.206;16.402;2023-01-24T14:39:31;101472.69;;;4.77;82.56
13869;BME280;7004;48.206;16.402;2023-01-24T14:42:15;101471.41;;;5.09;81.86
13869;BME280;7004;48.206;16.402;2023-01-24T14:44:55;101465.06;;;5.25;81.72
13869;BME280;7004;48.206;16.402;2023-01-24T14:47:25;101476.22;;;4.73;83.02
13869;BME280;7004;48.206;16.402;2023-01-24T14:49:59;101482.72;;;5.14;81.48
13869;BME280;7004;48.206;16.402;2023-01-24T14:52:31;101481.91;;;5.09;81.42
13869;BME280;7004;48.206;16.402;2023-01-24T14:55:22;101476.38;;;5.31;81.62
13869;BME280;7004;48.206;16.402;2023-01-24T14:57:54;101490.00;;;4.89;81.75
13869;BME280;7004;48.206;16.402;2023-01-24T15:00:22;101483.66;;;5.09;80.87
13869;BME280;7004;48.206;16.402;2023-01-24T15:02:53;101484.53;;;5.09;80.17
13869;BME280;7004;48.206;16.402;2023-01-24T15:07:52;101492.63;;;4.91;81.95
13869;BME280;7004;48.206;16.402;2023-01-24T15:10:28;101491.97;;;4.70;81.87
13869;BME280;7004;48.206;16.402;2023-01-24T15:12:58;101499.19;;;5.24;80.48
13869;BME280;7004;48.206;16.402;2023-01-24T15:15:26;101491.81;;;4.84;81.43
13869;BME280;7004;48.206;16.402;2023-01-24T15:18:05;101494.63;;;5.38;80.06
13869;BME280;7004;48.206;16.402;2023-01-24T15:20:33;101495.19;;;4.92;81.81
13869;BME280;7004;48.206;16.402;2023-01-24T15:23:01;101488.97;;;5.02;80.84
13869;BME280;7004;48.206;16.402;2023-01-24T15:25:35;101492.34;;;5.11;79.86
13869;BME280;7004;48.206;16.402;2023-01-24T15:28:26;101501.28;;;4.94;81.43
13869;BME280;7004;48.206;16.402;2023-01-24T15:30:57;101495.81;;;5.13;79.14
13869;BME280;7004;48.206;16.402;2023-01-24T15:33:24;101502.09;;;4.99;80.44
13869;BME280;7004;48.206;16.402;2023-01-24T15:35:52;101502.16;;;4.96;79.92
13869;BME280;7004;48.206;16.402;2023-01-24T15:38:29;101497.56;;;5.14;79.36
13869;BME280;7004;48.206;16.402;2023-01-24T15:43:40;101495.59;;;5.31;78.90
13869;BME280;7004;48.206;16.402;2023-01-24T15:46:33;101498.31;;;5.23;78.75
13869;BME280;7004;48.206;16.402;2023-01-24T15:54:39;101515.38;;;4.84;81.17
13869;BME280;7004;48.206;16.402;2023-01-24T16:02:34;101506.06;;;4.60;81.53